Time;durP1;ratioP1;P1;durP2;ratioP2;P2;SDS_P1;SDS_P2;PMS_P1;PMS_P2;Temp;Humidity;BMP_temperature;BMP_pressure;BME280_temperature;BME280_humidity;BME280_pressure;Samples;Min_cycle;Max_cycle;Signal;HPM_P1;HPM_P2
2024/04/04 00:00:15;;;;;;;;;;;16.60;58.20;;;;;;5044968;27;88011;-54
2024/04/04 00:02:40;;;;;;;;;;;16.60;58.30;;;;;;5045644;27;87592;-55
2024/04/04 00:05:06;;;;;;;;;;;16.60;58.20;;;;;;5045481;27;87933;-55
2024/04/04 00:07:32;;;;;;;;;;;16.60;58.30;;;;;;5044776;27;86972;-54
2024/04/04 00:09:58;;;;;;;;;;;16.60;58.30;;;;;;5045534;28;87769;-52
2024/04/04 00:12:26;;;;;;;;;;;16.50;58.30;;;;;;5045183;27;87084;-54
2024/04/04 00:14:52;;;;;;;;;;;16.50;58.30;;;;;;5043353;28;86941;-52
2024/04/04 00:17:17;;;;;;;;;;;16.50;58.30;;;;;;5045493;27;86614;-53
2024/04/04 00:19:46;;;;;;;;;;;16.40;58.30;;;;;;5045531;27;87339;-55
2024/04/04 00:22:11;;;;;;;;;;;16.50;58.40;;;;;;5045433;27;87704;-55
2024/04/04 00:24:37;;;;;;;;;;;16.50;58.30;;;;;;5044010;27;88567;-54
2024/04/04 00:27:03;;;;;;;;;;;16.50;58.40;;;;;;5045358;27;86993;-54
2024/04/04 00:29:29;;;;;;;;;;;16.40;58.30;;;;;;5045105;27;86963;-52
2024/04/04 00:31:55;;;;;;;;;;;16.40;58.30;;;;;;5046451;27;87990;-55
2024/04/04 00:34:20;;;;;;;;;;;16.40;58.30;;;;;;5045653;28;87471;-54
2024/04/04 00:36:46;;;;;;;;;;;16.40;58.30;;;;;;5041673;27;89220;-55
2024/04/04 00:39:12;;;;;;;;;;;16.40;58.30;;;;;;5041219;27;87607;-55
2024/04/04 00:41:38;;;;;;;;;;;16.40;58.30;;;;;;5045432;27;87941;-55
2024/04/04 00:44:04;;;;;;;;;;;16.40;58.30;;;;;;5044070;28;87940;-54
2024/04/04 00:46:30;;;;;;;;;;;16.30;58.30;;;;;;5034625;28;87101;-55
2024/04/04 00:48:56;;;;;;;;;;;16.30;58.30;;;;;;5049293;27;89537;-53
2024/04/04 00:51:22;;;;;;;;;;;16.30;58.40;;;;;;5039660;28;88648;-54
2024/04/04 00:53:47;;;;;;;;;;;16.30;58.40;;;;;;5042966;28;86967;-54
2024/04/04 00:56:13;;;;;;;;;;;16.30;58.50;;;;;;5042637;28;87608;-54
2024/04/04 00:58:39;;;;;;;;;;;16.30;58.40;;;;;;5044164;28;86999;-54
2024/04/04 01:01:04;;;;;;;;;;;16.30;58.40;;;;;;5044768;27;87317;-51
2024/04/04 01:03:30;;;;;;;;;;;16.30;58.40;;;;;;5043036;27;87425;-55
2024/04/04 01:05:55;;;;;;;;;;;16.30;58.40;;;;;;5045257;27;86235;-54
2024/04/04 01:08:22;;;;;;;;;;;16.20;58.40;;;;;;5044200;27;87510;-52
2024/04/04 01:10:47;;;;;;;;;;;16.20;58.40;;;;;;5044012;28;87357;-52
2024/04/04 01:13:13;;;;;;;;;;;16.20;58.40;;;;;;5042091;27;87969;-53
2024/04/04 01:15:39;;;;;;;;;;;16.20;58.50;;;;;;5047284;27;87928;-54
2024/04/04 01:18:04;;;;;;;;;;;16.20;58.40;;;;;;5044793;27;86986;-53
2024/04/04 01:20:30;;;;;;;;;;;16.20;58.40;;;;;;5044299;27;88039;-54
2024/04/04 01:22:55;;;;;;;;;;;16.10;58.50;;;;;;5044376;27;87445;-51
2024/04/04 01:25:21;;;;;;;;;;;16.10;58.40;;;;;;5043266;28;87257;-53
2024/04/04 01:27:49;;;;;;;;;;;16.10;58.40;;;;;;5044006;27;87718;-51
2024/04/04 01:30:18;;;;;;;;;;;16.10;58.40;;;;;;5042975;27;87709;-54
2024/04/04 01:32:43;;;;;;;;;;;16.10;58.40;;;;;;5043748;28;87047;-55
2024/04/04 01:35:09;;;;;;;;;;;16.10;58.50;;;;;;5044633;27;86973;-54
2024/04/04 01:37:35;;;;;;;;;;;16.10;58.50;;;;;;5045842;28;88368;-55
2024/04/04 01:40:01;;;;;;;;;;;16.10;58.40;;;;;;5042540;27;88962;-54
2024/04/04 01:42:26;;;;;;;;;;;16.10;58.40;;;;;;5041581;27;87682;-59
2024/04/04 01:44:52;;;;;;;;;;;16.00;58.50;;;;;;5042155;28;86927;-51
2024/04/04 01:47:17;;;;;;;;;;;16.00;58.50;;;;;;5043827;27;86907;-54
2024/04/04 01:49:43;;;;;;;;;;;16.00;58.40;;;;;;5043376;28;87396;-54
2024/04/04 01:52:09;;;;;;;;;;;16.00;58.40;;;;;;5044109;27;87331;-53
2024/04/04 01:54:34;;;;;;;;;;;16.00;58.40;;;;;;5042769;28;87329;-54
2024/04/04 01:57:00;;;;;;;;;;;16.00;58.40;;;;;;5046832;27;87318;-54
2024/04/04 01:59:25;;;;;;;;;;;16.00;58.40;;;;;;5043721;27;87476;-53
2024/04/04 02:01:51;;;;;;;;;;;15.90;58.40;;;;;;5042786;27;89985;-50
2024/04/04 02:04:16;;;;;;;;;;;15.90;58.40;;;;;;5043367;28;87390;-53
2024/04/04 02:06:42;;;;;;;;;;;15.90;58.40;;;;;;5040105;27;88513;-51
2024/04/04 02:09:08;;;;;;;;;;;15.90;58.60;;;;;;5042683;28;87076;-49
2024/04/04 02:11:34;;;;;;;;;;;15.90;58.40;;;;;;5043413;28;87020;-54
2024/04/04 02:14:00;;;;;;;;;;;15.90;58.50;;;;;;5041222;27;86962;-54
2024/04/04 02:16:26;;;;;;;;;;;15.90;58.50;;;;;;5043145;27;88521;-54
2024/04/04 02:18:51;;;;;;;;;;;15.90;58.50;;;;;;5044054;27;86512;-50
2024/04/04 02:21:17;;;;;;;;;;;15.90;58.50;;;;;;5038259;28;88307;-51
2024/04/04 02:23:43;;;;;;;;;;;15.80;58.50;;;;;;5041705;27;87336;-50
2024/04/04 02:26:08;;;;;;;;;;;15.80;58.50;;;;;;5040848;27;87893;-53
2024/04/04 02:28:34;;;;;;;;;;;15.80;58.50;;;;;;5042031;28;87457;-53
2024/04/04 02:31:00;;;;;;;;;;;15.80;58.50;;;;;;5041073;28;87848;-53
2024/04/04 02:33:25;;;;;;;;;;;15.80;58.50;;;;;;5042507;27;87691;-52
2024/04/04 02:35:55;;;;;;;;;;;15.70;58.50;;;;;;5043421;27;87708;-53
2024/04/04 02:38:21;;;;;;;;;;;15.70;58.40;;;;;;5041792;27;87615;-54
2024/04/04 02:40:47;;;;;;;;;;;15.70;58.50;;;;;;5046598;28;87193;-54
2024/04/04 02:43:13;;;;;;;;;;;15.70;58.50;;;;;;5044445;27;86364;-52
2024/04/04 02:45:38;;;;;;;;;;;15.70;58.50;;;;;;5045681;27;87037;-53
2024/04/04 02:48:04;;;;;;;;;;;15.70;58.50;;;;;;5044358;28;87926;-55
2024/04/04 02:50:29;;;;;;;;;;;15.70;58.50;;;;;;5046593;28;88244;-52
2024/04/04 02:52:55;;;;;;;;;;;15.70;58.40;;;;;;5046350;28;87854;-55
2024/04/04 02:55:20;;;;;;;;;;;15.60;58.50;;;;;;5042348;28;87104;-54
2024/04/04 02:57:46;;;;;;;;;;;15.60;58.50;;;;;;5047006;28;87740;-54
2024/04/04 03:00:12;;;;;;;;;;;15.60;58.50;;;;;;5045189;28;87604;-52
2024/04/04 03:02:38;;;;;;;;;;;15.60;58.50;;;;;;5048481;28;88182;-52
2024/04/04 03:05:04;;;;;;;;;;;15.60;58.60;;;;;;5046463;27;87695;-54
2024/04/04 03:07:29;;;;;;;;;;;15.60;59.10;;;;;;5043878;27;87779;-52
2024/04/04 03:09:55;;;;;;;;;;;15.60;58.60;;;;;;5044988;27;86953;-52
2024/04/04 03:12:21;;;;;;;;;;;15.60;58.60;;;;;;5045308;27;88706;-53
2024/04/04 03:14:46;;;;;;;;;;;15.50;58.50;;;;;;5040623;28;88479;-55
2024/04/04 03:17:12;;;;;;;;;;;15.50;58.60;;;;;;5046803;28;87595;-53
2024/04/04 03:19:37;;;;;;;;;;;15.50;58.60;;;;;;5046315;28;87020;-53
2024/04/04 03:22:03;;;;;;;;;;;15.50;58.60;;;;;;5045743;27;88539;-51
2024/04/04 03:24:28;;;;;;;;;;;15.50;58.50;;;;;;5049173;27;87033;-54
2024/04/04 03:26:54;;;;;;;;;;;15.50;58.60;;;;;;5045806;28;87643;-52
2024/04/04 03:29:19;;;;;;;;;;;15.50;58.50;;;;;;5045319;28;86984;-49
2024/04/04 03:31:45;;;;;;;;;;;15.40;58.60;;;;;;5046527;27;87914;-54
2024/04/04 03:34:11;;;;;;;;;;;15.40;58.60;;;;;;5044357;27;88448;-52
2024/04/04 03:36:36;;;;;;;;;;;15.40;58.60;;;;;;5042800;27;87049;-54
2024/04/04 03:39:02;;;;;;;;;;;15.40;58.60;;;;;;5044206;28;88275;-54
2024/04/04 03:41:29;;;;;;;;;;;15.40;58.60;;;;;;5039057;28;87467;-53
2024/04/04 03:43:54;;;;;;;;;;;15.40;58.70;;;;;;5046136;27;87079;-52
2024/04/04 03:46:20;;;;;;;;;;;15.40;58.70;;;;;;5048106;28;86976;-53
2024/04/04 03:48:45;;;;;;;;;;;15.30;58.70;;;;;;5046081;28;87067;-53
2024/04/04 03:51:11;;;;;;;;;;;15.30;58.60;;;;;;5045068;27;88037;-51
2024/04/04 03:53:37;;;;;;;;;;;15.30;59.30;;;;;;5045378;27;88559;-53
2024/04/04 03:56:02;;;;;;;;;;;15.30;58.70;;;;;;5045665;27;86266;-54
2024/04/04 03:58:28;;;;;;;;;;;15.30;58.70;;;;;;5046163;27;87054;-55
2024/04/04 04:00:53;;;;;;;;;;;15.30;58.80;;;;;;5045425;27;87380;-55
2024/04/04 04:03:19;;;;;;;;;;;15.20;58.80;;;;;;5045514;28;87950;-52
2024/04/04 04:05:45;;;;;;;;;;;15.20;58.80;;;;;;5045443;27;87717;-54
2024/04/04 04:08:10;;;;;;;;;;;15.20;58.80;;;;;;5043987;27;87305;-52
2024/04/04 04:10:37;;;;;;;;;;;15.20;58.70;;;;;;5042027;27;87292;-56
2024/04/04 04:13:04;;;;;;;;;;;15.20;58.70;;;;;;5043294;28;87336;-53
2024/04/04 04:15:30;;;;;;;;;;;15.20;58.80;;;;;;5045629;27;86997;-52
2024/04/04 04:17:56;;;;;;;;;;;15.20;58.70;;;;;;5046032;27;88044;-52
2024/04/04 04:23:05;;;;;;;;;;;15.10;58.80;;;;;;5042979;28;87011;-51
2024/04/04 04:25:31;;;;;;;;;;;15.10;58.70;;;;;;5033421;27;87672;-53
2024/04/04 04:27:57;;;;;;;;;;;15.10;58.70;;;;;;5043796;28;88609;-52
2024/04/04 04:30:22;;;;;;;;;;;15.10;58.70;;;;;;5044273;28;88808;-51
2024/04/04 04:32:48;;;;;;;;;;;15.10;58.80;;;;;;5045668;28;87611;-51
2024/04/04 04:35:14;;;;;;;;;;;15.10;58.80;;;;;;5044661;27;87067;-53
2024/04/04 04:37:39;;;;;;;;;;;15.10;58.80;;;;;;5044737;27;87009;-52
2024/04/04 04:40:05;;;;;;;;;;;15.00;58.80;;;;;;5039443;28;88459;-50
2024/04/04 04:42:31;;;;;;;;;;;15.00;58.90;;;;;;5042059;27;87107;-52
2024/04/04 04:44:57;;;;;;;;;;;15.00;59.00;;;;;;5045738;27;86993;-50
2024/04/04 04:47:22;;;;;;;;;;;15.00;58.90;;;;;;5043409;28;87355;-52
2024/04/04 04:49:51;;;;;;;;;;;15.00;58.90;;;;;;5045506;27;87016;-50
2024/04/04 04:52:19;;;;;;;;;;;14.90;59.00;;;;;;5042232;27;88544;-54
2024/04/04 04:54:45;;;;;;;;;;;14.90;59.00;;;;;;5044567;27;87471;-50
2024/04/04 04:57:10;;;;;;;;;;;14.90;59.00;;;;;;5042088;27;87199;-53
2024/04/04 04:59:36;;;;;;;;;;;14.90;58.90;;;;;;5040599;28;87429;-51
2024/04/04 05:02:02;;;;;;;;;;;14.90;59.10;;;;;;5044441;28;87024;-51
2024/04/04 05:04:27;;;;;;;;;;;14.90;59.00;;;;;;5045333;27;87426;-50
2024/04/04 05:06:53;;;;;;;;;;;14.90;59.10;;;;;;5042288;28;87440;-51
2024/04/04 05:09:19;;;;;;;;;;;14.80;59.10;;;;;;5044201;27;86578;-52
2024/04/04 05:11:45;;;;;;;;;;;14.80;59.00;;;;;;5046134;27;87206;-53
2024/04/04 05:14:12;;;;;;;;;;;14.80;59.00;;;;;;5042740;28;86955;-51
2024/04/04 05:16:39;;;;;;;;;;;14.80;59.20;;;;;;5038556;28;87910;-55
2024/04/04 05:19:04;;;;;;;;;;;14.80;59.10;;;;;;5042256;28;87245;-54
2024/04/04 05:21:30;;;;;;;;;;;14.80;59.10;;;;;;5044830;28;87224;-54
2024/04/04 05:23:55;;;;;;;;;;;14.80;59.10;;;;;;5043627;27;87939;-53
2024/04/04 05:26:21;;;;;;;;;;;14.80;59.10;;;;;;5044142;28;87631;-53
2024/04/04 05:28:51;;;;;;;;;;;14.80;59.10;;;;;;5042200;27;87632;-51
2024/04/04 05:31:16;;;;;;;;;;;14.70;59.00;;;;;;5041351;27;88426;-51
2024/04/04 05:33:42;;;;;;;;;;;14.80;59.00;;;;;;5045507;27;86891;-52
2024/04/04 05:36:08;;;;;;;;;;;14.80;59.10;;;;;;5044766;27;86930;-52
2024/04/04 05:38:33;;;;;;;;;;;14.70;58.90;;;;;;5042526;27;87515;-53
2024/04/04 05:41:03;;;;;;;;;;;14.80;59.10;;;;;;5043822;28;88000;-54
2024/04/04 05:43:29;;;;;;;;;;;14.80;59.00;;;;;;5040679;27;87883;-54
2024/04/04 05:45:54;;;;;;;;;;;14.70;59.10;;;;;;5041096;27;88968;-52
2024/04/04 05:48:20;;;;;;;;;;;14.70;59.00;;;;;;5044153;28;87027;-54
2024/04/04 05:50:45;;;;;;;;;;;14.70;59.00;;;;;;5042363;28;86982;-50
2024/04/04 05:53:11;;;;;;;;;;;14.70;59.00;;;;;;5042198;28;87287;-49
2024/04/04 05:55:37;;;;;;;;;;;14.80;59.10;;;;;;5045825;27;87639;-51
2024/04/04 05:58:02;;;;;;;;;;;14.70;59.10;;;;;;5042116;27;87843;-51
2024/04/04 06:00:28;;;;;;;;;;;14.70;59.10;;;;;;5044463;27;86981;-52
2024/04/04 06:02:53;;;;;;;;;;;14.70;59.20;;;;;;5042928;27;87885;-50
2024/04/04 06:05:19;;;;;;;;;;;14.70;59.10;;;;;;5042733;27;89801;-50
2024/04/04 06:07:44;;;;;;;;;;;14.70;59.10;;;;;;5042729;28;87045;-50
2024/04/04 06:10:10;;;;;;;;;;;14.70;59.20;;;;;;5042030;27;87297;-50
2024/04/04 06:12:35;;;;;;;;;;;14.70;59.80;;;;;;5041563;28;87758;-53
2024/04/04 06:15:01;;;;;;;;;;;14.70;59.20;;;;;;5047695;27;86951;-51
2024/04/04 06:17:26;;;;;;;;;;;14.70;59.20;;;;;;5046620;27;87613;-51
2024/04/04 06:19:52;;;;;;;;;;;14.70;59.30;;;;;;5046398;28;87054;-49
2024/04/04 06:22:18;;;;;;;;;;;14.70;59.30;;;;;;5046373;28;88212;-49
2024/04/04 06:24:44;;;;;;;;;;;14.70;59.30;;;;;;5046890;27;88565;-50
2024/04/04 06:27:10;;;;;;;;;;;14.70;59.30;;;;;;5042703;27;87902;-51
2024/04/04 06:29:35;;;;;;;;;;;14.70;59.40;;;;;;5045778;27;88016;-48
2024/04/04 06:32:04;;;;;;;;;;;14.70;59.30;;;;;;5045293;28;87541;-50
2024/04/04 06:34:30;;;;;;;;;;;14.70;59.40;;;;;;5043844;27;87230;-52
2024/04/04 06:36:55;;;;;;;;;;;14.70;59.40;;;;;;5049584;27;87384;-51
2024/04/04 06:39:21;;;;;;;;;;;14.70;59.40;;;;;;5044708;27;86966;-53
2024/04/04 06:41:46;;;;;;;;;;;14.70;59.40;;;;;;5047586;28;87044;-51
2024/04/04 06:44:12;;;;;;;;;;;14.70;59.40;;;;;;5046375;28;87552;-50
2024/04/04 06:46:37;;;;;;;;;;;14.70;59.50;;;;;;5047991;28;86602;-51
2024/04/04 06:49:04;;;;;;;;;;;14.70;59.50;;;;;;5047320;28;87091;-52
2024/04/04 06:51:30;;;;;;;;;;;14.70;59.50;;;;;;5045994;27;89020;-53
2024/04/04 06:53:56;;;;;;;;;;;14.70;59.40;;;;;;5043759;28;87979;-51
2024/04/04 06:56:21;;;;;;;;;;;14.70;59.40;;;;;;5044324;28;87438;-50
2024/04/04 06:58:47;;;;;;;;;;;14.70;59.40;;;;;;5044921;27;86980;-50
2024/04/04 07:01:12;;;;;;;;;;;14.70;59.50;;;;;;5044074;28;87791;-50
2024/04/04 07:03:38;;;;;;;;;;;14.70;59.50;;;;;;5042611;27;87692;-50
2024/04/04 07:06:03;;;;;;;;;;;14.70;59.40;;;;;;5045942;27;87057;-51
2024/04/04 07:08:29;;;;;;;;;;;14.70;59.40;;;;;;5046607;27;89064;-52
2024/04/04 07:10:58;;;;;;;;;;;14.70;60.00;;;;;;5047044;27;87075;-50
2024/04/04 07:13:24;;;;;;;;;;;14.70;59.50;;;;;;5044126;28;87033;-50
2024/04/04 07:15:59;;;;;;;;;;;14.70;59.50;;;;;;5045196;28;87356;-50
2024/04/04 07:18:24;;;;;;;;;;;14.70;59.50;;;;;;5042438;28;88637;-51
2024/04/04 07:20:51;;;;;;;;;;;14.70;59.40;;;;;;5048964;28;86924;-51
2024/04/04 07:23:17;;;;;;;;;;;14.70;59.40;;;;;;5045521;27;88430;-51
2024/04/04 07:25:49;;;;;;;;;;;14.70;59.40;;;;;;5043618;27;87615;-52
2024/04/04 07:28:15;;;;;;;;;;;14.80;59.40;;;;;;5046597;27;86969;-52
2024/04/04 07:30:40;;;;;;;;;;;14.80;59.30;;;;;;5041982;27;87439;-54
2024/04/04 07:33:06;;;;;;;;;;;14.80;59.40;;;;;;5046200;28;87330;-52
2024/04/04 07:35:31;;;;;;;;;;;14.80;59.40;;;;;;5046496;27;88617;-52
2024/04/04 07:37:57;;;;;;;;;;;14.80;59.40;;;;;;5045768;28;87400;-52
2024/04/04 07:40:22;;;;;;;;;;;14.80;59.40;;;;;;5046465;28;87028;-53
2024/04/04 07:42:48;;;;;;;;;;;14.80;59.30;;;;;;5045229;28;88131;-52
2024/04/04 07:45:13;;;;;;;;;;;14.80;59.20;;;;;;5045663;28;87763;-50
2024/04/04 07:47:39;;;;;;;;;;;14.80;59.30;;;;;;5045649;28;86946;-51
2024/04/04 07:50:07;;;;;;;;;;;14.80;59.20;;;;;;5045205;27;88386;-53
2024/04/04 07:52:33;;;;;;;;;;;14.80;59.30;;;;;;5046223;28;87858;-51
2024/04/04 07:54:59;;;;;;;;;;;14.80;59.30;;;;;;5046626;28;87498;-51
2024/04/04 07:57:25;;;;;;;;;;;14.80;59.20;;;;;;5045834;28;88634;-55
2024/04/04 07:59:50;;;;;;;;;;;14.80;59.30;;;;;;5042708;27;87259;-51
2024/04/04 08:02:17;;;;;;;;;;;14.80;59.10;;;;;;5047095;28;87143;-54
2024/04/04 08:04:43;;;;;;;;;;;14.80;59.00;;;;;;5044772;27;86932;-52
2024/04/04 08:07:09;;;;;;;;;;;14.80;58.90;;;;;;5040952;27;88209;-53
2024/04/04 08:09:34;;;;;;;;;;;14.80;59.00;;;;;;5045654;27;88583;-51
2024/04/04 08:12:00;;;;;;;;;;;14.80;58.90;;;;;;5044945;28;87696;-54
2024/04/04 08:14:27;;;;;;;;;;;14.80;58.90;;;;;;5044669;28;87608;-50
2024/04/04 08:16:53;;;;;;;;;;;14.80;59.00;;;;;;5044195;28;88631;-50
2024/04/04 08:19:18;;;;;;;;;;;14.80;59.00;;;;;;5045455;27;87218;-52
2024/04/04 08:21:46;;;;;;;;;;;14.80;58.90;;;;;;5045584;27;87851;-51
2024/04/04 08:24:11;;;;;;;;;;;14.80;59.00;;;;;;5045820;28;86624;-51
2024/04/04 08:26:37;;;;;;;;;;;14.80;59.00;;;;;;5045502;28;87002;-52
2024/04/04 08:29:04;;;;;;;;;;;14.80;59.00;;;;;;5042991;27;87404;-53
2024/04/04 08:31:29;;;;;;;;;;;14.80;58.40;;;;;;5041781;28;87842;-55
2024/04/04 08:33:55;;;;;;;;;;;14.70;58.70;;;;;;5045693;27;88214;-53
2024/04/04 08:36:20;;;;;;;;;;;14.80;59.50;;;;;;5045361;27;87936;-51
2024/04/04 08:38:46;;;;;;;;;;;14.80;58.80;;;;;;5044484;28;87206;-51
2024/04/04 08:41:13;;;;;;;;;;;14.80;58.90;;;;;;5044259;28;87069;-52
2024/04/04 08:43:39;;;;;;;;;;;14.80;58.90;;;;;;5043574;28;88534;-51
2024/04/04 08:46:07;;;;;;;;;;;14.80;58.90;;;;;;5047355;28;87478;-51
2024/04/04 08:48:33;;;;;;;;;;;14.80;58.90;;;;;;5044359;27;87206;-53
2024/04/04 08:51:00;;;;;;;;;;;14.80;58.90;;;;;;5041994;28;86944;-54
2024/04/04 08:53:26;;;;;;;;;;;14.80;59.00;;;;;;5045357;27;88021;-50
2024/04/04 08:55:54;;;;;;;;;;;14.80;59.00;;;;;;5042621;28;88608;-51
2024/04/04 08:58:21;;;;;;;;;;;14.80;58.80;;;;;;5044239;28;86965;-54
2024/04/04 09:00:47;;;;;;;;;;;14.80;58.90;;;;;;5043740;27;87823;-54
2024/04/04 09:03:13;;;;;;;;;;;14.80;58.70;;;;;;5043702;27;88599;-52
2024/04/04 09:05:45;;;;;;;;;;;14.90;58.90;;;;;;5044541;27;87305;-50
2024/04/04 09:08:11;;;;;;;;;;;14.90;58.90;;;;;;5045208;28;87598;-53
2024/04/04 09:10:37;;;;;;;;;;;14.80;58.80;;;;;;5043525;27;86968;-53
2024/04/04 09:13:03;;;;;;;;;;;14.80;58.90;;;;;;5044399;27;86946;-53
2024/04/04 09:15:29;;;;;;;;;;;14.80;59.10;;;;;;5038001;28;88712;-50
2024/04/04 09:18:06;;;;;;;;;;;14.80;59.00;;;;;;5044072;28;87631;-53
2024/04/04 09:20:32;;;;;;;;;;;14.90;58.90;;;;;;5041383;27;89629;-54
2024/04/04 09:23:00;;;;;;;;;;;14.80;58.90;;;;;;5043480;27;87759;-51
2024/04/04 09:25:25;;;;;;;;;;;14.90;58.90;;;;;;5044651;27;86990;-51
2024/04/04 09:27:51;;;;;;;;;;;14.90;58.90;;;;;;5045055;27;86959;-51
2024/04/04 09:30:18;;;;;;;;;;;14.90;58.90;;;;;;5046812;28;87794;-54
2024/04/04 09:32:44;;;;;;;;;;;14.90;58.90;;;;;;5043528;28;87641;-51
2024/04/04 09:35:09;;;;;;;;;;;14.90;58.70;;;;;;5042333;28;87079;-52
2024/04/04 09:37:35;;;;;;;;;;;14.90;58.80;;;;;;5042120;28;86132;-53
2024/04/04 09:40:01;;;;;;;;;;;14.90;58.80;;;;;;5044708;28;86925;-52
2024/04/04 09:42:26;;;;;;;;;;;15.00;59.30;;;;;;5043548;28;88391;-53
2024/04/04 09:44:52;;;;;;;;;;;14.90;58.80;;;;;;5043088;27;88933;-53
2024/04/04 09:47:19;;;;;;;;;;;15.00;58.90;;;;;;5042322;28;87758;-53
2024/04/04 09:49:45;;;;;;;;;;;15.00;58.80;;;;;;5043612;28;87630;-54
2024/04/04 09:52:11;;;;;;;;;;;15.00;58.70;;;;;;5045360;27;87918;-54
2024/04/04 09:54:37;;;;;;;;;;;15.00;58.70;;;;;;5043653;28;87635;-51
2024/04/04 09:57:04;;;;;;;;;;;15.00;58.70;;;;;;5041885;28;87070;-52
2024/04/04 09:59:30;;;;;;;;;;;15.00;58.70;;;;;;5042014;28;87052;-51
2024/04/04 10:02:02;;;;;;;;;;;15.00;58.70;;;;;;5043208;27;87783;-51
2024/04/04 10:04:35;;;;;;;;;;;15.10;58.80;;;;;;5044133;28;87084;-50
2024/04/04 10:07:01;;;;;;;;;;;15.10;58.90;;;;;;5042483;28;87872;-54
2024/04/04 10:09:35;;;;;;;;;;;15.10;58.90;;;;;;5038954;27;88530;-50
2024/04/04 10:12:07;;;;;;;;;;;15.10;58.90;;;;;;5047698;27;87556;-51
2024/04/04 10:14:32;;;;;;;;;;;15.10;58.90;;;;;;5041570;28;87429;-53
2024/04/04 10:17:03;;;;;;;;;;;15.10;58.90;;;;;;5041863;28;87113;-51
2024/04/04 10:19:36;;;;;;;;;;;15.20;58.90;;;;;;5042710;27;86965;-51
2024/04/04 10:22:06;;;;;;;;;;;15.20;58.90;;;;;;5039966;28;88150;-51
2024/04/04 10:24:34;;;;;;;;;;;15.30;59.00;;;;;;5042976;28;87394;-53
2024/04/04 10:27:02;;;;;;;;;;;15.20;58.90;;;;;;5041661;28;87293;-53
2024/04/04 10:29:33;;;;;;;;;;;15.20;58.90;;;;;;5042741;27;88821;-51
2024/04/04 10:31:58;;;;;;;;;;;15.30;58.90;;;;;;5042135;27;87034;-54
2024/04/04 10:34:24;;;;;;;;;;;15.30;59.00;;;;;;5045720;28;87921;-52
2024/04/04 10:36:50;;;;;;;;;;;15.30;59.10;;;;;;5042189;27;87536;-54
2024/04/04 10:39:22;;;;;;;;;;;15.30;59.00;;;;;;5040903;28;90031;-52
2024/04/04 10:41:52;;;;;;;;;;;15.30;59.00;;;;;;5043233;27;87453;-52
2024/04/04 10:44:18;;;;;;;;;;;15.30;59.00;;;;;;5043526;27;87070;-52
2024/04/04 10:46:45;;;;;;;;;;;15.40;59.00;;;;;;5042869;27;87296;-54
2024/04/04 10:49:11;;;;;;;;;;;15.40;58.90;;;;;;5040376;28;88419;-49
2024/04/04 10:51:38;;;;;;;;;;;15.40;58.90;;;;;;5041723;28;86351;-51
2024/04/04 10:54:04;;;;;;;;;;;15.40;59.00;;;;;;5043869;27;87610;-49
2024/04/04 10:56:30;;;;;;;;;;;15.40;58.90;;;;;;5043152;28;87591;-50
2024/04/04 10:58:56;;;;;;;;;;;15.50;58.50;;;;;;5037108;27;87906;-53
2024/04/04 11:01:22;;;;;;;;;;;15.50;58.30;;;;;;5042422;27;89372;-52
2024/04/04 11:03:50;;;;;;;;;;;15.50;58.30;;;;;;5046246;28;87681;-54
2024/04/04 11:06:15;;;;;;;;;;;15.50;58.10;;;;;;5046242;27;86928;-55
2024/04/04 11:08:42;;;;;;;;;;;15.50;58.20;;;;;;5044936;27;87631;-55
2024/04/04 11:11:10;;;;;;;;;;;15.60;58.40;;;;;;5045123;27;87120;-53
2024/04/04 11:13:36;;;;;;;;;;;15.60;58.30;;;;;;5045153;27;87086;-53
2024/04/04 11:16:02;;;;;;;;;;;15.60;58.50;;;;;;5043905;27;88503;-55
2024/04/04 11:18:28;;;;;;;;;;;15.60;58.50;;;;;;5045814;27;87430;-49
2024/04/04 11:20:54;;;;;;;;;;;15.60;58.40;;;;;;5046666;27;87541;-51
2024/04/04 11:23:19;;;;;;;;;;;15.60;58.40;;;;;;5045614;27;88066;-52
2024/04/04 11:25:45;;;;;;;;;;;15.70;58.50;;;;;;5046262;28;87121;-51
2024/04/04 11:28:10;;;;;;;;;;;15.70;58.30;;;;;;5046235;28;87558;-52
2024/04/04 11:30:36;;;;;;;;;;;15.70;58.30;;;;;;5046405;27;87044;-53
2024/04/04 11:33:01;;;;;;;;;;;15.70;57.90;;;;;;5046005;28;87492;-52
2024/04/04 11:35:27;;;;;;;;;;;15.70;57.30;;;;;;5044624;27;87338;-50
2024/04/04 11:37:53;;;;;;;;;;;15.70;57.70;;;;;;5045669;28;87011;-55
2024/04/04 11:40:18;;;;;;;;;;;15.70;57.60;;;;;;5046601;27;87294;-51
2024/04/04 11:42:44;;;;;;;;;;;15.80;58.00;;;;;;5045969;28;87136;-55
2024/04/04 11:45:09;;;;;;;;;;;15.90;58.00;;;;;;5043627;28;86952;-54
2024/04/04 11:47:35;;;;;;;;;;;15.90;57.70;;;;;;5039301;28;88636;-51
2024/04/04 11:50:01;;;;;;;;;;;15.90;57.30;;;;;;5045931;27;87088;-54
2024/04/04 11:52:27;;;;;;;;;;;15.90;57.60;;;;;;5046189;27;87247;-54
2024/04/04 11:54:53;;;;;;;;;;;15.90;57.80;;;;;;5044140;28;87420;-51
2024/04/04 11:57:20;;;;;;;;;;;16.00;57.80;;;;;;5042431;28;87029;-53
2024/04/04 11:59:46;;;;;;;;;;;16.00;57.40;;;;;;5044566;27;88351;-53
2024/04/04 12:02:11;;;;;;;;;;;16.00;57.30;;;;;;5045473;28;88116;-53
2024/04/04 12:04:43;;;;;;;;;;;16.00;57.40;;;;;;5043572;28;86875;-55
2024/04/04 12:07:08;;;;;;;;;;;16.00;57.90;;;;;;5044606;28;87477;-53
2024/04/04 12:09:34;;;;;;;;;;;16.10;57.00;;;;;;5044880;27;87193;-52
2024/04/04 12:12:00;;;;;;;;;;;16.00;56.80;;;;;;5044678;27;88125;-54
2024/04/04 12:14:25;;;;;;;;;;;16.00;56.90;;;;;;5044490;27;88612;-55
2024/04/04 12:16:53;;;;;;;;;;;16.10;57.00;;;;;;5044727;28;87005;-52
2024/04/04 12:19:28;;;;;;;;;;;16.10;56.60;;;;;;5043526;27;88233;-54
2024/04/04 12:21:54;;;;;;;;;;;16.20;56.60;;;;;;5044670;28;87973;-53
2024/04/04 12:24:20;;;;;;;;;;;16.20;56.30;;;;;;5043799;27;86980;-54
2024/04/04 12:26:47;;;;;;;;;;;16.20;56.20;;;;;;5044239;28;88334;-55
2024/04/04 12:29:16;;;;;;;;;;;16.20;56.80;;;;;;5046308;27;86423;-52
2024/04/04 12:31:42;;;;;;;;;;;16.20;56.30;;;;;;5045250;27;86892;-55
2024/04/04 12:34:07;;;;;;;;;;;16.20;56.30;;;;;;5042586;27;87786;-52
2024/04/04 12:36:33;;;;;;;;;;;16.30;56.40;;;;;;5043988;28;88001;-53
2024/04/04 12:38:59;;;;;;;;;;;16.30;56.30;;;;;;5044647;27;87462;-52
2024/04/04 12:41:24;;;;;;;;;;;16.30;55.90;;;;;;5043867;27;87719;-52
2024/04/04 12:43:50;;;;;;;;;;;16.30;56.40;;;;;;5048372;27;87185;-54
2024/04/04 12:46:15;;;;;;;;;;;16.40;56.70;;;;;;5044668;27;88648;-52
2024/04/04 12:48:41;;;;;;;;;;;16.40;55.80;;;;;;5042063;27;86969;-55
2024/04/04 12:51:07;;;;;;;;;;;16.40;55.90;;;;;;5044415;28;87714;-54
2024/04/04 12:53:32;;;;;;;;;;;16.40;55.90;;;;;;5044179;27;87697;-53
2024/04/04 12:55:59;;;;;;;;;;;16.40;56.30;;;;;;5040683;27;87053;-52
2024/04/04 12:58:24;;;;;;;;;;;16.50;55.80;;;;;;5045218;27;87916;-55
2024/04/04 13:00:58;;;;;;;;;;;16.40;56.80;;;;;;5043276;27;89709;-51
2024/04/04 13:03:23;;;;;;;;;;;16.40;56.00;;;;;;5045399;27;86873;-54
2024/04/04 13:05:49;;;;;;;;;;;16.50;56.20;;;;;;5046907;27;87848;-54
2024/04/04 13:08:15;;;;;;;;;;;16.60;56.30;;;;;;5044848;27;87012;-52
2024/04/04 13:10:40;;;;;;;;;;;16.50;55.50;;;;;;5045315;28;87562;-55
2024/04/04 13:13:06;;;;;;;;;;;16.60;55.40;;;;;;5043275;28;87488;-54
2024/04/04 13:15:31;;;;;;;;;;;16.60;55.60;;;;;;5044749;28;86923;-51
2024/04/04 13:17:57;;;;;;;;;;;16.60;55.60;;;;;;5044150;27;88377;-54
2024/04/04 13:20:22;;;;;;;;;;;16.70;55.30;;;;;;5041824;28;87817;-51
2024/04/04 13:22:48;;;;;;;;;;;16.70;55.50;;;;;;5041794;27;87061;-55
2024/04/04 13:25:14;;;;;;;;;;;16.70;55.70;;;;;;5042484;27;87935;-55
2024/04/04 13:27:42;;;;;;;;;;;16.70;55.50;;;;;;5046578;28;87908;-54
2024/04/04 13:30:11;;;;;;;;;;;16.70;55.50;;;;;;5042388;28;87822;-54
2024/04/04 13:32:36;;;;;;;;;;;16.70;55.80;;;;;;5042023;27;88429;-52
2024/04/04 13:35:02;;;;;;;;;;;16.70;55.80;;;;;;5043676;28;87684;-55
2024/04/04 13:37:28;;;;;;;;;;;16.70;55.70;;;;;;5041580;27;87826;-50
2024/04/04 13:39:54;;;;;;;;;;;16.80;55.60;;;;;;5043278;28;88361;-55
2024/04/04 13:42:21;;;;;;;;;;;16.70;55.30;;;;;;5043696;27;86395;-52
2024/04/04 13:44:50;;;;;;;;;;;16.70;54.90;;;;;;5043433;27;87362;-53
2024/04/04 13:47:15;;;;;;;;;;;16.70;55.50;;;;;;5043374;27;88867;-52
2024/04/04 13:49:41;;;;;;;;;;;16.80;55.60;;;;;;5043706;28;88029;-53
2024/04/04 13:52:07;;;;;;;;;;;16.80;55.60;;;;;;5042797;28;87715;-55
2024/04/04 13:54:32;;;;;;;;;;;16.80;55.30;;;;;;5044117;27;87731;-53
2024/04/04 13:56:58;;;;;;;;;;;16.80;55.20;;;;;;5043480;27;87630;-50
2024/04/04 13:59:24;;;;;;;;;;;16.80;55.30;;;;;;5041254;28;87655;-55
2024/04/04 14:01:49;;;;;;;;;;;16.90;55.40;;;;;;5043828;27;87219;-54
2024/04/04 14:04:15;;;;;;;;;;;16.90;55.40;;;;;;5044259;27;87079;-54
2024/04/04 14:06:43;;;;;;;;;;;16.90;55.20;;;;;;5043740;27;87717;-55
2024/04/04 14:09:09;;;;;;;;;;;16.90;55.20;;;;;;5042026;28;87496;-53
2024/04/04 14:11:35;;;;;;;;;;;16.90;55.50;;;;;;5046759;27;87018;-53